sensor_id;sensor_type;location;lat;lon;timestamp;temperature;humidity
8939;DHT22;4504;48.810;9.172;2023-02-23T00:00:18;10.20;99.90
8939;DHT22;4504;48.810;9.172;2023-02-23T00:02:54;10.20;99.90
8939;DHT22;4504;48.810;9.172;2023-02-23T00:05:24;10.30;99.90
8939;DHT22;4504;48.810;9.172;2023-02-23T00:07:51;10.30;99.90
8939;DHT22;4504;48.810;9.172;2023-02-23T00:10:20;10.20;99.90
8939;DHT22;4504;48.810;9.172;2023-02-23T00:12:51;10.20;99.90
8939;DHT22;4504;48.810;9.172;2023-02-23T00:15:18;10.30;99.90
8939;DHT22;4504;48.810;9.172;2023-02-23T00:17:45;10.30;99.90
8939;DHT22;4504;48.810;9.172;2023-02-23T00:20:14;10.30;99.90
8939;DHT22;4504;48.810;9.172;2023-02-23T00:22:41;10.30;99.90
8939;DHT22;4504;48.810;9.172;2023-02-23T00:25:09;10.30;99.90
8939;DHT22;4504;48.810;9.172;2023-02-23T00:27:37;10.30;99.90
8939;DHT22;4504;48.810;9.172;2023-02-23T00:30:10;10.30;99.90
8939;DHT22;4504;48.810;9.172;2023-02-23T00:32:38;10.30;99.90
8939;DHT22;4504;48.810;9.172;2023-02-23T00:35:06;10.30;99.90
8939;DHT22;4504;48.810;9.172;2023-02-23T00:37:37;10.30;99.90
8939;DHT22;4504;48.810;9.172;2023-02-23T00:40:05;10.30;99.90
8939;DHT22;4504;48.810;9.172;2023-02-23T00:42:37;10.30;99.90
8939;DHT22;4504;48.810;9.172;2023-02-23T00:45:06;10.30;99.90
8939;DHT22;4504;48.810;9.172;2023-02-23T00:47:35;10.30;99.90
8939;DHT22;4504;48.810;9.172;2023-02-23T00:50:03;10.20;99.90
8939;DHT22;4504;48.810;9.172;2023-02-23T00:52:30;10.20;99.90
8939;DHT22;4504;48.810;9.172;2023-02-23T00:55:03;10.20;99.90
8939;DHT22;4504;48.810;9.172;2023-02-23T00:57:30;10.10;99.90
8939;DHT22;4504;48.810;9.172;2023-02-23T00:59:58;10.10;99.90
8939;DHT22;4504;48.810;9.172;2023-02-23T01:02:27;10.00;99.90
8939;DHT22;4504;48.810;9.172;2023-02-23T01:04:55;10.00;99.90
8939;DHT22;4504;48.810;9.172;2023-02-23T01:07:24;9.90;99.90
8939;DHT22;4504;48.810;9.172;2023-02-23T01:09:51;9.90;99.90
8939;DHT22;4504;48.810;9.172;2023-02-23T01:12:19;9.90;99.90
8939;DHT22;4504;48.810;9.172;2023-02-23T01:14:46;9.80;99.90
8939;DHT22;4504;48.810;9.172;2023-02-23T01:17:13;9.80;99.90
8939;DHT22;4504;48.810;9.172;2023-02-23T01:19:42;9.80;99.90
8939;DHT22;4504;48.810;9.172;2023-02-23T01:22:08;9.80;99.90
8939;DHT22;4504;48.810;9.172;2023-02-23T01:24:36;9.70;99.90
8939;DHT22;4504;48.810;9.172;2023-02-23T01:27:04;9.70;99.90
8939;DHT22;4504;48.810;9.172;2023-02-23T01:29:33;9.80;99.90
8939;DHT22;4504;48.810;9.172;2023-02-23T01:32:00;9.70;99.90
8939;DHT22;4504;48.810;9.172;2023-02-23T01:34:27;9.70;99.90
8939;DHT22;4504;48.810;9.172;2023-02-23T01:36:53;9.70;99.90
8939;DHT22;4504;48.810;9.172;2023-02-23T01:39:20;9.60;99.90
8939;DHT22;4504;48.810;9.172;2023-02-23T01:41:48;9.60;99.90
8939;DHT22;4504;48.810;9.172;2023-02-23T01:47:23;9.60;99.90
8939;DHT22;4504;48.810;9.172;2023-02-23T01:49:51;9.60;99.90
8939;DHT22;4504;48.810;9.172;2023-02-23T01:52:18;9.50;99.90
8939;DHT22;4504;48.810;9.172;2023-02-23T01:54:49;9.60;99.90
8939;DHT22;4504;48.810;9.172;2023-02-23T01:57:21;9.60;99.90
8939;DHT22;4504;48.810;9.172;2023-02-23T01:59:50;9.50;99.90
8939;DHT22;4504;48.810;9.172;2023-02-23T02:02:23;9.50;99.90
8939;DHT22;4504;48.810;9.172;2023-02-23T02:04:58;9.50;99.90
8939;DHT22;4504;48.810;9.172;2023-02-23T02:07:29;9.50;99.90
8939;DHT22;4504;48.810;9.172;2023-02-23T02:09:57;9.50;99.90
8939;DHT22;4504;48.810;9.172;2023-02-23T02:12:44;9.50;99.90
8939;DHT22;4504;48.810;9.172;2023-02-23T02:15:13;9.50;99.90
8939;DHT22;4504;48.810;9.172;2023-02-23T02:17:49;9.60;99.90
8939;DHT22;4504;48.810;9.172;2023-02-23T02:20:46;9.50;99.90
8939;DHT22;4504;48.810;9.172;2023-02-23T02:23:52;9.60;99.90
8939;DHT22;4504;48.810;9.172;2023-02-23T02:26:32;9.60;99.90
8939;DHT22;4504;48.810;9.172;2023-02-23T02:32:36;9.60;99.90
8939;DHT22;4504;48.810;9.172;2023-02-23T02:35:41;9.60;99.90
8939;DHT22;4504;48.810;9.172;2023-02-23T02:38:24;9.60;99.90
8939;DHT22;4504;48.810;9.172;2023-02-23T02:40:58;9.60;99.90
8939;DHT22;4504;48.810;9.172;2023-02-23T02:43:36;9.70;99.90
8939;DHT22;4504;48.810;9.172;2023-02-23T02:46:10;9.60;99.90
8939;DHT22;4504;48.810;9.172;2023-02-23T02:48:45;9.50;99.90
8939;DHT22;4504;48.810;9.172;2023-02-23T02:51:21;9.50;99.90
8939;DHT22;4504;48.810;9.172;2023-02-23T02:53:57;9.50;99.90
8939;DHT22;4504;48.810;9.172;2023-02-23T02:56:35;9.50;99.90
8939;DHT22;4504;48.810;9.172;2023-02-23T02:59:07;9.50;99.90
8939;DHT22;4504;48.810;9.172;2023-02-23T03:01:53;9.60;99.90
8939;DHT22;4504;48.810;9.172;2023-02-23T03:04:38;9.50;99.90
8939;DHT22;4504;48.810;9.172;2023-02-23T03:07:27;9.50;99.90
8939;DHT22;4504;48.810;9.172;2023-02-23T03:10:18;9.50;99.90
8939;DHT22;4504;48.810;9.172;2023-02-23T03:13:16;9.50;99.90
8939;DHT22;4504;48.810;9.172;2023-02-23T03:16:14;9.50;99.90
8939;DHT22;4504;48.810;9.172;2023-02-23T03:19:12;9.50;99.90
8939;DHT22;4504;48.810;9.172;2023-02-23T03:22:06;9.50;99.90
8939;DHT22;4504;48.810;9.172;2023-02-23T03:24:55;9.60;99.90
8939;DHT22;4504;48.810;9.172;2023-02-23T03:27:47;9.50;99.90
8939;DHT22;4504;48.810;9.172;2023-02-23T03:30:41;9.60;99.90
8939;DHT22;4504;48.810;9.172;2023-02-23T03:33:34;9.60;99.90
8939;DHT22;4504;48.810;9.172;2023-02-23T03:36:24;9.60;99.90
8939;DHT22;4504;48.810;9.172;2023-02-23T03:39:17;9.60;99.90
8939;DHT22;4504;48.810;9.172;2023-02-23T03:42:06;9.60;99.90
8939;DHT22;4504;48.810;9.172;2023-02-23T03:44:54;9.60;99.90
8939;DHT22;4504;48.810;9.172;2023-02-23T03:47:41;9.60;99.90
8939;DHT22;4504;48.810;9.172;2023-02-23T03:50:31;9.60;99.90
8939;DHT22;4504;48.810;9.172;2023-02-23T03:53:21;9.60;99.90
8939;DHT22;4504;48.810;9.172;2023-02-23T03:56:09;9.60;99.90
8939;DHT22;4504;48.810;9.172;2023-02-23T03:58:58;9.60;99.90
8939;DHT22;4504;48.810;9.172;2023-02-23T04:01:47;9.60;99.90
8939;DHT22;4504;48.810;9.172;2023-02-23T04:04:33;9.60;99.90
8939;DHT22;4504;48.810;9.172;2023-02-23T04:07:18;9.60;99.90
8939;DHT22;4504;48.810;9.172;2023-02-23T04:10:07;9.60;99.90
8939;DHT22;4504;48.810;9.172;2023-02-23T04:12:57;9.60;99.90
8939;DHT22;4504;48.810;9.172;2023-02-23T04:15:44;9.60;99.90
8939;DHT22;4504;48.810;9.172;2023-02-23T04:18:16;9.50;99.90
8939;DHT22;4504;48.810;9.172;2023-02-23T04:20:43;9.60;99.90
8939;DHT22;4504;48.810;9.172;2023-02-23T04:23:10;9.50;99.90
8939;DHT22;4504;48.810;9.172;2023-02-23T04:25:37;9.60;99.90
8939;DHT22;4504;48.810;9.172;2023-02-23T04:28:04;9.60;99.90
8939;DHT22;4504;48.810;9.172;2023-02-23T04:30:31;9.50;99.90
8939;DHT22;4504;48.810;9.172;2023-02-23T04:32:58;9.50;99.90
8939;DHT22;4504;48.810;9.172;2023-02-23T04:35:27;9.50;99.90
8939;DHT22;4504;48.810;9.172;2023-02-23T04:37:56;9.50;99.90
8939;DHT22;4504;48.810;9.172;2023-02-23T04:40:23;9.50;99.90
8939;DHT22;4504;48.810;9.172;2023-02-23T04:42:50;9.60;99.90
8939;DHT22;4504;48.810;9.172;2023-02-23T04:45:18;9.50;99.90
8939;DHT22;4504;48.810;9.172;2023-02-23T04:47:45;9.50;99.90
8939;DHT22;4504;48.810;9.172;2023-02-23T04:50:12;9.50;99.90
8939;DHT22;4504;48.810;9.172;2023-02-23T04:52:41;9.40;99.90
8939;DHT22;4504;48.810;9.172;2023-02-23T04:55:14;9.40;99.90
8939;DHT22;4504;48.810;9.172;2023-02-23T04:57:41;9.50;99.90
8939;DHT22;4504;48.810;9.172;2023-02-23T05:00:09;9.50;99.90
8939;DHT22;4504;48.810;9.172;2023-02-23T05:02:36;9.40;99.90
8939;DHT22;4504;48.810;9.172;2023-02-23T05:05:04;9.40;99.90
8939;DHT22;4504;48.810;9.172;2023-02-23T05:07:32;9.40;99.90
8939;DHT22;4504;48.810;9.172;2023-02-23T05:10:00;9.40;99.90
8939;DHT22;4504;48.810;9.172;2023-02-23T05:12:27;9.40;99.90
8939;DHT22;4504;48.810;9.172;2023-02-23T05:14:55;9.40;99.90
8939;DHT22;4504;48.810;9.172;2023-02-23T05:17:22;9.40;99.90
8939;DHT22;4504;48.810;9.172;2023-02-23T05:19:49;9.40;99.90
8939;DHT22;4504;48.810;9.172;2023-02-23T05:22:16;9.50;99.90
8939;DHT22;4504;48.810;9.172;2023-02-23T05:24:43;9.50;99.90
8939;DHT22;4504;48.810;9.172;2023-02-23T05:27:13;9.50;99.90
8939;DHT22;4504;48.810;9.172;2023-02-23T05:29:40;9.40;99.90
8939;DHT22;4504;48.810;9.172;2023-02-23T05:32:07;9.50;99.90
8939;DHT22;4504;48.810;9.172;2023-02-23T05:34:34;9.40;99.90
8939;DHT22;4504;48.810;9.172;2023-02-23T05:37:01;9.50;99.90
8939;DHT22;4504;48.810;9.172;2023-02-23T05:39:28;9.50;99.90
8939;DHT22;4504;48.810;9.172;2023-02-23T05:41:55;9.50;99.90
8939;DHT22;4504;48.810;9.172;2023-02-23T05:44:23;9.50;99.90
8939;DHT22;4504;48.810;9.172;2023-02-23T05:46:51;9.50;99.90
8939;DHT22;4504;48.810;9.172;2023-02-23T05:49:17;9.50;99.90
8939;DHT22;4504;48.810;9.172;2023-02-23T05:51:44;9.40;99.90
8939;DHT22;4504;48.810;9.172;2023-02-23T05:54:11;9.50;99.90
8939;DHT22;4504;48.810;9.172;2023-02-23T05:56:39;9.50;99.90
8939;DHT22;4504;48.810;9.172;2023-02-23T05:59:06;9.50;99.90
8939;DHT22;4504;48.810;9.172;2023-02-23T06:01:35;9.50;99.90
8939;DHT22;4504;48.810;9.172;2023-02-23T06:04:02;9.50;99.90
8939;DHT22;4504;48.810;9.172;2023-02-23T06:06:29;9.60;99.90
8939;DHT22;4504;48.810;9.172;2023-02-23T06:08:56;9.50;99.90
8939;DHT22;4504;48.810;9.172;2023-02-23T06:11:23;9.50;99.90
8939;DHT22;4504;48.810;9.172;2023-02-23T06:13:50;9.50;99.90
8939;DHT22;4504;48.810;9.172;2023-02-23T06:16:17;9.50;99.90
8939;DHT22;4504;48.810;9.172;2023-02-23T06:18:46;9.50;99.90
8939;DHT22;4504;48.810;9.172;2023-02-23T06:21:13;9.40;99.90
8939;DHT22;4504;48.810;9.172;2023-02-23T06:23:40;9.40;99.90
8939;DHT22;4504;48.810;9.172;2023-02-23T06:26:07;9.40;99.90
8939;DHT22;4504;48.810;9.172;2023-02-23T06:28:34;9.40;99.90
8939;DHT22;4504;48.810;9.172;2023-02-23T06:31:02;9.40;99.90
8939;DHT22;4504;48.810;9.172;2023-02-23T06:33:29;9.40;99.90
8939;DHT22;4504;48.810;9.172;2023-02-23T06:35:57;9.40;99.90
8939;DHT22;4504;48.810;9.172;2023-02-23T06:38:24;9.30;99.90
8939;DHT22;4504;48.810;9.172;2023-02-23T06:40:51;9.30;99.90
8939;DHT22;4504;48.810;9.172;2023-02-23T06:43:18;9.30;99.90
8939;DHT22;4504;48.810;9.172;2023-02-23T06:45:45;9.30;99.90
8939;DHT22;4504;48.810;9.172;2023-02-23T06:48:12;9.30;99.90
8939;DHT22;4504;48.810;9.172;2023-02-23T06:50:39;9.30;99.90
8939;DHT22;4504;48.810;9.172;2023-02-23T06:53:08;9.30;99.90
8939;DHT22;4504;48.810;9.172;2023-02-23T06:55:35;9.30;99.90
8939;DHT22;4504;48.810;9.172;2023-02-23T06:58:02;9.30;99.90
8939;DHT22;4504;48.810;9.172;2023-02-23T07:00:31;9.30;99.90
8939;DHT22;4504;48.810;9.172;2023-02-23T07:02:58;9.30;99.90
8939;DHT22;4504;48.810;9.172;2023-02-23T07:05:25;9.30;99.90
8939;DHT22;4504;48.810;9.172;2023-02-23T07:07:52;9.30;99.90
8939;DHT22;4504;48.810;9.172;2023-02-23T07:10:21;9.30;99.90
8939;DHT22;4504;48.810;9.172;2023-02-23T07:12:48;9.40;99.90
8939;DHT22;4504;48.810;9.172;2023-02-23T07:15:16;9.30;99.90
8939;DHT22;4504;48.810;9.172;2023-02-23T07:17:44;9.30;99.90
8939;DHT22;4504;48.810;9.172;2023-02-23T07:20:14;9.40;99.90
8939;DHT22;4504;48.810;9.172;2023-02-23T07:22:41;9.40;99.90
8939;DHT22;4504;48.810;9.172;2023-02-23T07:25:08;9.40;99.90
8939;DHT22;4504;48.810;9.172;2023-02-23T07:27:37;9.40;99.90
8939;DHT22;4504;48.810;9.172;2023-02-23T07:30:04;9.40;99.90
8939;DHT22;4504;48.810;9.172;2023-02-23T07:32:31;9.40;99.90
8939;DHT22;4504;48.810;9.172;2023-02-23T07:34:58;9.50;99.90
8939;DHT22;4504;48.810;9.172;2023-02-23T07:37:25;9.50;99.90
8939;DHT22;4504;48.810;9.172;2023-02-23T07:39:52;9.50;99.90
8939;DHT22;4504;48.810;9.172;2023-02-23T07:42:19;9.50;99.90
8939;DHT22;4504;48.810;9.172;2023-02-23T07:44:48;9.60;99.90
8939;DHT22;4504;48.810;9.172;2023-02-23T07:47:15;9.60;99.90
8939;DHT22;4504;48.810;9.172;2023-02-23T07:49:41;9.60;99.90
8939;DHT22;4504;48.810;9.172;2023-02-23T07:52:08;9.70;99.90
8939;DHT22;4504;48.810;9.172;2023-02-23T07:54:35;9.70;99.90
8939;DHT22;4504;48.810;9.172;2023-02-23T07:57:02;9.70;99.90
8939;DHT22;4504;48.810;9.172;2023-02-23T07:59:29;9.80;99.90
8939;DHT22;4504;48.810;9.172;2023-02-23T08:01:58;9.80;99.90
8939;DHT22;4504;48.810;9.172;2023-02-23T08:04:25;9.80;99.90
8939;DHT22;4504;48.810;9.172;2023-02-23T08:06:52;9.90;99.90
8939;DHT22;4504;48.810;9.172;2023-02-23T08:09:19;9.90;99.90
8939;DHT22;4504;48.810;9.172;2023-02-23T08:11:46;9.90;99.90
8939;DHT22;4504;48.810;9.172;2023-02-23T08:14:13;10.00;99.90
8939;DHT22;4504;48.810;9.172;2023-02-23T08:16:40;10.00;99.90
8939;DHT22;4504;48.810;9.172;2023-02-23T08:19:09;10.10;99.90
8939;DHT22;4504;48.810;9.172;2023-02-23T08:21:36;10.00;99.90
8939;DHT22;4504;48.810;9.172;2023-02-23T08:24:03;10.00;99.90
8939;DHT22;4504;48.810;9.172;2023-02-23T08:26:30;10.00;99.90
8939;DHT22;4504;48.810;9.172;2023-02-23T08:28:57;10.00;99.90
8939;DHT22;4504;48.810;9.172;2023-02-23T08:31:24;10.10;99.90
8939;DHT22;4504;48.810;9.172;2023-02-23T08:33:52;10.10;99.90
8939;DHT22;4504;48.810;9.172;2023-02-23T08:36:21;10.10;99.90
8939;DHT22;4504;48.810;9.172;2023-02-23T08:38:48;10.20;99.90
8939;DHT22;4504;48.810;9.172;2023-02-23T08:41:15;10.20;99.90
8939;DHT22;4504;48.810;9.172;2023-02-23T08:43:42;10.20;99.90
8939;DHT22;4504;48.810;9.172;2023-02-23T08:46:10;10.30;99.90
8939;DHT22;4504;48.810;9.172;2023-02-23T08:48:37;10.40;99.90
8939;DHT22;4504;48.810;9.172;2023-02-23T08:51:05;10.40;99.90
8939;DHT22;4504;48.810;9.172;2023-02-23T08:53:35;10.40;99.90
8939;DHT22;4504;48.810;9.172;2023-02-23T08:56:04;10.40;99.90
8939;DHT22;4504;48.810;9.172;2023-02-23T08:58:32;10.50;99.90
8939;DHT22;4504;48.810;9.172;2023-02-23T09:00:59;10.50;99.90
8939;DHT22;4504;48.810;9.172;2023-02-23T09:03:27;10.50;99.90
8939;DHT22;4504;48.810;9.172;2023-02-23T09:05:56;10.60;99.90
8939;DHT22;4504;48.810;9.172;2023-02-23T09:08:23;10.60;99.90
8939;DHT22;4504;48.810;9.172;2023-02-23T09:10:51;10.60;99.90
8939;DHT22;4504;48.810;9.172;2023-02-23T09:13:18;10.60;99.90
8939;DHT22;4504;48.810;9.172;2023-02-23T09:15:45;10.60;99.90
8939;DHT22;4504;48.810;9.172;2023-02-23T09:18:12;10.70;99.90
8939;DHT22;4504;48.810;9.172;2023-02-23T09:20:41;10.70;99.90
8939;DHT22;4504;48.810;9.172;2023-02-23T09:23:08;10.70;99.90
8939;DHT22;4504;48.810;9.172;2023-02-23T09:25:39;10.80;99.90
8939;DHT22;4504;48.810;9.172;2023-02-23T09:28:10;10.80;99.90
8939;DHT22;4504;48.810;9.172;2023-02-23T09:30:38;10.80;99.90
8939;DHT22;4504;48.810;9.172;2023-02-23T09:33:06;11.00;99.90
8939;DHT22;4504;48.810;9.172;2023-02-23T09:35:34;10.90;99.90
8939;DHT22;4504;48.810;9.172;2023-02-23T09:38:04;11.00;99.90
8939;DHT22;4504;48.810;9.172;2023-02-23T09:40:41;11.00;99.90
8939;DHT22;4504;48.810;9.172;2023-02-23T09:43:13;11.00;99.90
8939;DHT22;4504;48.810;9.172;2023-02-23T09:45:43;11.10;99.90
8939;DHT22;4504;48.810;9.172;2023-02-23T09:48:14;11.10;99.90
8939;DHT22;4504;48.810;9.172;2023-02-23T09:50:46;11.20;99.90
8939;DHT22;4504;48.810;9.172;2023-02-23T09:53:27;11.20;99.90
8939;DHT22;4504;48.810;9.172;2023-02-23T09:55:57;11.30;99.90
8939;DHT22;4504;48.810;9.172;2023-02-23T09:58:28;11.30;99.90
8939;DHT22;4504;48.810;9.172;2023-02-23T10:01:11;11.40;99.90
8939;DHT22;4504;48.810;9.172;2023-02-23T10:03:50;11.40;99.90
8939;DHT22;4504;48.810;9.172;2023-02-23T10:06:19;11.40;99.90
8939;DHT22;4504;48.810;9.172;2023-02-23T10:08:54;11.40;99.90
8939;DHT22;4504;48.810;9.172;2023-02-23T10:11:27;11.40;99.90
8939;DHT22;4504;48.810;9.172;2023-02-23T10:14:03;11.60;99.90
8939;DHT22;4504;48.810;9.172;2023-02-23T10:16:44;11.50;99.90
8939;DHT22;4504;48.810;9.172;2023-02-23T10:19:16;11.50;99.90
8939;DHT22;4504;48.810;9.172;2023-02-23T10:21:50;11.60;99.90
8939;DHT22;4504;48.810;9.172;2023-02-23T10:24:22;11.70;99.90
8939;DHT22;4504;48.810;9.172;2023-02-23T10:26:53;11.60;99.90
8939;DHT22;4504;48.810;9.172;2023-02-23T10:29:26;11.70;99.90
8939;DHT22;4504;48.810;9.172;2023-02-23T10:31:57;11.80;99.90
8939;DHT22;4504;48.810;9.172;2023-02-23T10:34:26;11.80;99.90
8939;DHT22;4504;48.810;9.172;2023-02-23T10:36:58;11.90;99.90
8939;DHT22;4504;48.810;9.172;2023-02-23T10:39:26;11.90;99.90
8939;DHT22;4504;48.810;9.172;2023-02-23T10:41:55;11.90;99.90
8939;DHT22;4504;48.810;9.172;2023-02-23T10:44:26;12.00;99.90
8939;DHT22;4504;48.810;9.172;2023-02-23T10:46:56;11.90;99.90
8939;DHT22;4504;48.810;9.172;2023-02-23T10:49:31;12.00;99.90
8939;DHT22;4504;48.810;9.172;2023-02-23T10:52:00;11.90;99.90
8939;DHT22;4504;48.810;9.172;2023-02-23T10:54:44;12.00;99.90
8939;DHT22;4504;48.810;9.172;2023-02-23T10:57:21;12.00;99.90
8939;DHT22;4504;48.810;9.172;2023-02-23T11:00:05;12.00;99.90
8939;DHT22;4504;48.810;9.172;2023-02-23T11:02:33;12.00;99.90
8939;DHT22;4504;48.810;9.172;2023-02-23T11:05:05;12.00;99.90
8939;DHT22;4504;48.810;9.172;2023-02-23T11:07:33;12.00;99.90
8939;DHT22;4504;48.810;9.172;2023-02-23T11:10:23;12.00;99.90
8939;DHT22;4504;48.810;9.172;2023-02-23T11:12:50;12.10;99.90
8939;DHT22;4504;48.810;9.172;2023-02-23T11:15:26;12.10;99.90
8939;DHT22;4504;48.810;9.172;2023-02-23T11:17:55;12.10;99.90
8939;DHT22;4504;48.810;9.172;2023-02-23T11:20:28;12.20;99.90
8939;DHT22;4504;48.810;9.172;2023-02-23T11:22:56;12.20;99.90
8939;DHT22;4504;48.810;9.172;2023-02-23T11:25:26;12.30;99.90
8939;DHT22;4504;48.810;9.172;2023-02-23T11:27:54;12.30;99.90
8939;DHT22;4504;48.810;9.172;2023-02-23T11:30:25;12.40;99.90
8939;DHT22;4504;48.810;9.172;2023-02-23T11:32:56;12.50;99.90
8939;DHT22;4504;48.810;9.172;2023-02-23T11:35:28;12.50;99.90
8939;DHT22;4504;48.810;9.172;2023-02-23T11:37:56;12.60;99.90
8939;DHT22;4504;48.810;9.172;2023-02-23T11:40:25;12.60;99.90
8939;DHT22;4504;48.810;9.172;2023-02-23T11:42:55;12.60;99.90
8939;DHT22;4504;48.810;9.172;2023-02-23T11:45:24;12.70;99.90
8939;DHT22;4504;48.810;9.172;2023-02-23T11:47:54;12.70;99.90
8939;DHT22;4504;48.810;9.172;2023-02-23T11:50:27;12.80;99.90
8939;DHT22;4504;48.810;9.172;2023-02-23T11:53:02;12.80;99.90
8939;DHT22;4504;48.810;9.172;2023-02-23T11:55:30;12.90;99.90
8939;DHT22;4504;48.810;9.172;2023-02-23T11:58:17;13.00;99.90
8939;DHT22;4504;48.810;9.172;2023-02-23T12:00:56;13.00;99.90
8939;DHT22;4504;48.810;9.172;2023-02-23T12:03:24;13.00;99.90
8939;DHT22;4504;48.810;9.172;2023-02-23T12:05:54;13.00;99.90
8939;DHT22;4504;48.810;9.172;2023-02-23T12:08:34;13.10;99.90
8939;DHT22;4504;48.810;9.172;2023-02-23T12:11:06;13.20;99.90
8939;DHT22;4504;48.810;9.172;2023-02-23T12:13:40;13.30;99.90
8939;DHT22;4504;48.810;9.172;2023-02-23T12:16:16;13.30;99.90
8939;DHT22;4504;48.810;9.172;2023-02-23T12:18:46;13.30;99.90
8939;DHT22;4504;48.810;9.172;2023-02-23T12:21:22;13.30;99.90
8939;DHT22;4504;48.810;9.172;2023-02-23T12:23:53;13.30;99.90
8939;DHT22;4504;48.810;9.172;2023-02-23T12:26:24;13.30;99.90
8939;DHT22;4504;48.810;9.172;2023-02-23T12:28:55;13.30;99.90
8939;DHT22;4504;48.810;9.172;2023-02-23T12:31:30;13.30;99.90
8939;DHT22;4504;48.810;9.172;2023-02-23T12:34:11;13.30;99.90
8939;DHT22;4504;48.810;9.172;2023-02-23T12:36:42;13.20;99.90
8939;DHT22;4504;48.810;9.172;2023-02-23T12:39:15;13.20;99.90
8939;DHT22;4504;48.810;9.172;2023-02-23T12:41:50;13.20;99.90
8939;DHT22;4504;48.810;9.172;2023-02-23T12:44:29;13.30;99.90
8939;DHT22;4504;48.810;9.172;2023-02-23T12:47:05;13.30;99.90
8939;DHT22;4504;48.810;9.172;2023-02-23T12:49:38;13.30;99.90
8939;DHT22;4504;48.810;9.172;2023-02-23T12:52:11;13.30;99.90
8939;DHT22;4504;48.810;9.172;2023-02-23T12:54:41;13.30;99.90
8939;DHT22;4504;48.810;9.172;2023-02-23T12:57:18;13.20;99.90
8939;DHT22;4504;48.810;9.172;2023-02-23T13:03:10;13.20;99.90
8939;DHT22;4504;48.810;9.172;2023-02-23T13:05:42;13.20;99.90
8939;DHT22;4504;48.810;9.172;2023-02-23T13:08:21;13.10;99.90
8939;DHT22;4504;48.810;9.172;2023-02-23T13:10:59;13.10;99.90
8939;DHT22;4504;48.810;9.172;2023-02-23T13:13:33;13.10;99.90
8939;DHT22;4504;48.810;9.172;2023-02-23T13:16:09;13.00;99.90
8939;DHT22;4504;48.810;9.172;2023-02-23T13:18:43;13.10;99.90
8939;DHT22;4504;48.810;9.172;2023-02-23T13:21:16;13.00;99.90
8939;DHT22;4504;48.810;9.172;2023-02-23T13:23:55;13.10;99.90
8939;DHT22;4504;48.810;9.172;2023-02-23T13:26:31;13.10;99.90
8939;DHT22;4504;48.810;9.172;2023-02-23T13:29:08;13.10;99.90
8939;DHT22;4504;48.810;9.172;2023-02-23T13:31:40;13.00;99.90
8939;DHT22;4504;48.810;9.172;2023-02-23T13:34:11;13.00;99.90
8939;DHT22;4504;48.810;9.172;2023-02-23T13:36:40;13.00;99.90
8939;DHT22;4504;48.810;9.172;2023-02-23T13:39:22;13.00;99.90
8939;DHT22;4504;48.810;9.172;2023-02-23T13:42:04;13.00;99.90
8939;DHT22;4504;48.810;9.172;2023-02-23T13:44:38;13.00;99.90
8939;DHT22;4504;48.810;9.172;2023-02-23T13:47:14;13.00;99.90
8939;DHT22;4504;48.810;9.172;2023-02-23T13:49:47;13.00;99.90
8939;DHT22;4504;48.810;9.172;2023-02-23T13:52:22;12.90;99.90
8939;DHT22;4504;48.810;9.172;2023-02-23T13:54:53;12.90;99.90
8939;DHT22;4504;48.810;9.172;2023-02-23T13:57:29;12.90;99.90
8939;DHT22;4504;48.810;9.172;2023-02-23T13:59:56;12.90;99.90
8939;DHT22;4504;48.810;9.172;2023-02-23T14:02:36;12.90;99.90
8939;DHT22;4504;48.810;9.172;2023-02-23T14:05:15;13.00;99.90
8939;DHT22;4504;48.810;9.172;2023-02-23T14:07:47;13.00;99.90
8939;DHT22;4504;48.810;9.172;2023-02-23T14:10:18;13.10;99.90
8939;DHT22;4504;48.810;9.172;2023-02-23T14:13:05;13.00;99.90
8939;DHT22;4504;48.810;9.172;2023-02-23T14:15:41;13.00;99.90
8939;DHT22;4504;48.810;9.172;2023-02-23T14:18:31;13.10;99.90
8939;DHT22;4504;48.810;9.172;2023-02-23T14:21:04;13.10;99.90
8939;DHT22;4504;48.810;9.172;2023-02-23T14:23:48;13.00;99.90
8939;DHT22;4504;48.810;9.172;2023-02-23T14:29:22;13.10;99.90
8939;DHT22;4504;48.810;9.172;2023-02-23T14:32:00;13.10;99.90
8939;DHT22;4504;48.810;9.172;2023-02-23T14:34:46;13.10;99.90
8939;DHT22;4504;48.810;9.172;2023-02-23T14:37:18;13.10;99.90
8939;DHT22;4504;48.810;9.172;2023-02-23T14:39:50;13.10;99.90
8939;DHT22;4504;48.810;9.172;2023-02-23T14:42:21;13.20;99.90
8939;DHT22;4504;48.810;9.172;2023-02-23T14:44:49;13.10;99.90
8939;DHT22;4504;48.810;9.172;2023-02-23T14:47:19;13.10;99.90
8939;DHT22;4504;48.810;9.172;2023-02-23T14:49:48;13.10;99.90
8939;DHT22;4504;48.810;9.172;2023-02-23T14:52:21;13.10;99.90
8939;DHT22;4504;48.810;9.172;2023-02-23T14:54:49;13.00;99.90
8939;DHT22;4504;48.810;9.172;2023-02-23T14:57:19;13.10;99.90
8939;DHT22;4504;48.810;9.172;2023-02-23T14:59:53;13.10;99.90
8939;DHT22;4504;48.810;9.172;2023-02-23T15:02:24;13.00;99.90
8939;DHT22;4504;48.810;9.172;2023-02-23T15:04:51;13.00;99.90
8939;DHT22;4504;48.810;9.172;2023-02-23T15:07:27;13.00;99.90
8939;DHT22;4504;48.810;9.172;2023-02-23T15:09:58;13.00;99.90
8939;DHT22;4504;48.810;9.172;2023-02-23T15:12:27;13.00;99.90
8939;DHT22;4504;48.810;9.172;2023-02-23T15:14:56;13.00;99.90
8939;DHT22;4504;48.810;9.172;2023-02-23T15:17:26;13.00;99.90
8939;DHT22;4504;48.810;9.172;2023-02-23T15:19:58;12.90;99.90
8939;DHT22;4504;48.810;9.172;2023-02-23T15:22:30;12.90;99.90
8939;DHT22;4504;48.810;9.172;2023-02-23T15:24:59;12.90;99.90
8939;DHT22;4504;48.810;9.172;2023-02-23T15:27:37;12.90;99.90
8939;DHT22;4504;48.810;9.172;2023-02-23T15:30:19;12.90;99.90
8939;DHT22;4504;48.810;9.172;2023-02-23T15:32:47;12.90;99.90
8939;DHT22;4504;48.810;9.172;2023-02-23T15:35:14;12.90;99.90
8939;DHT22;4504;48.810;9.172;2023-02-23T15:37:45;12.90;99.90
8939;DHT22;4504;48.810;9.172;2023-02-23T15:40:15;12.90;99.90
8939;DHT22;4504;48.810;9.172;2023-02-23T15:42:47;13.00;99.90
8939;DHT22;4504;48.810;9.172;2023-02-23T15:45:18;12.90;99.90
8939;DHT22;4504;48.810;9.172;2023-02-23T15:47:51;12.90;99.90
8939;DHT22;4504;48.810;9.172;2023-02-23T15:50:23;12.80;99.90
8939;DHT22;4504;48.810;9.172;2023-02-23T15:52:59;12.80;99.90
8939;DHT22;4504;48.810;9.172;2023-02-23T15:55:31;12.90;99.90
8939;DHT22;4504;48.810;9.172;2023-02-23T15:58:09;12.80;99.90
8939;DHT22;4504;48.810;9.172;2023-02-23T16:00:41;12.80;99.90
8939;DHT22;4504;48.810;9.172;2023-02-23T16:03:22;12.80;99.90
8939;DHT22;4504;48.810;9.172;2023-02-23T16:05:55;12.70;99.90
8939;DHT22;4504;48.810;9.172;2023-02-23T16:08:25;12.70;99.90
8939;DHT22;4504;48.810;9.172;2023-02-23T16:11:01;12.70;99.90
8939;DHT22;4504;48.810;9.172;2023-02-23T16:13:29;12.60;99.90
8939;DHT22;4504;48.810;9.172;2023-02-23T16:15:56;12.60;99.90
8939;DHT22;4504;48.810;9.172;2023-02-23T16:18:34;12.60;99.90
8939;DHT22;4504;48.810;9.172;2023-02-23T16:21:03;12.60;99.90
8939;DHT22;4504;48.810;9.172;2023-02-23T16:23:34;12.60;99.90
8939;DHT22;4504;48.810;9.172;2023-02-23T16:26:06;12.60;99.90
8939;DHT22;4504;48.810;9.172;2023-02-23T16:28:36;12.60;99.90
8939;DHT22;4504;48.810;9.172;2023-02-23T16:31:07;12.60;99.90
8939;DHT22;4504;48.810;9.172;2023-02-23T16:33:42;12.50;99.90
8939;DHT22;4504;48.810;9.172;2023-02-23T16:36:15;12.50;99.90
8939;DHT22;4504;48.810;9.172;2023-02-23T16:38:56;12.50;99.90
8939;DHT22;4504;48.810;9.172;2023-02-23T16:41:25;12.50;99.90
8939;DHT22;4504;48.810;9.172;2023-02-23T16:43:53;12.40;99.90
8939;DHT22;4504;48.810;9.172;2023-02-23T16:46:23;12.40;99.90
8939;DHT22;4504;48.810;9.172;2023-02-23T16:48:51;12.40;99.90
8939;DHT22;4504;48.810;9.172;2023-02-23T16:51:20;12.40;99.90
8939;DHT22;4504;48.810;9.172;2023-02-23T16:53:50;12.40;99.90